Time;durP1;ratioP1;P1;durP2;ratioP2;P2;SDS_P1;SDS_P2;PMS_P1;PMS_P2;Temp;Humidity;BMP_temperature;BMP_pressure;BME280_temperature;BME280_humidity;BME280_pressure;Samples;Min_cycle;Max_cycle;Signal;HPM_P1;HPM_P2
2021/06/09 00:00:23;;;;;;;14.98;10.95;;;;;;;;;;5064966;28;20468;-69
2021/06/09 00:02:50;;;;;;;13.80;10.80;;;;;;;;;;5046310;28;20108;-68
2021/06/09 00:05:16;;;;;;;12.85;10.27;;;;;;;;;;5062204;28;20048;-69
2021/06/09 00:07:42;;;;;;;12.15;10.60;;;;;;;;;;5063309;28;20059;-69
2021/06/09 00:10:09;;;;;;;13.95;11.30;;;;;;;;;;5061934;28;20048;-69
2021/06/09 00:12:35;;;;;;;12.32;10.48;;;;;;;;;;5059133;28;20139;-69
2021/06/09 00:15:02;;;;;;;14.38;11.80;;;;;;;;;;5056571;28;20040;-69
2021/06/09 00:17:28;;;;;;;13.10;10.15;;;;;;;;;;5049092;28;20534;-69
2021/06/09 00:19:55;;;;;;;14.50;10.48;;;;;;;;;;5061187;28;20095;-69
2021/06/09 00:22:21;;;;;;;11.95;10.25;;;;;;;;;;5063896;28;20472;-69
2021/06/09 00:24:48;;;;;;;12.55;9.48;;;;;;;;;;5063184;28;20093;-69
2021/06/09 00:27:14;;;;;;;11.63;10.18;;;;;;;;;;5063780;28;20037;-69
2021/06/09 00:29:41;;;;;;;11.52;10.00;;;;;;;;;;5063239;28;20043;-69
2021/06/09 00:32:07;;;;;;;12.48;10.50;;;;;;;;;;5066529;28;20082;-69
2021/06/09 00:34:34;;;;;;;15.93;10.50;;;;;;;;;;5064691;28;20044;-69
2021/06/09 00:37:00;;;;;;;11.48;10.18;;;;;;;;;;5065650;28;20044;-69
2021/06/09 00:39:26;;;;;;;12.48;9.70;;;;;;;;;;5064437;28;20040;-69
2021/06/09 00:41:55;;;;;;;11.23;9.63;;;;;;;;;;5062805;28;20098;-69
2021/06/09 00:44:22;;;;;;;12.70;10.63;;;;;;;;;;5041995;28;20395;-68
2021/06/09 00:46:48;;;;;;;13.40;11.55;;;;;;;;;;5072194;28;20040;-69
2021/06/09 00:49:16;;;;;;;13.48;11.10;;;;;;;;;;5063803;28;20053;-69
2021/06/09 00:51:43;;;;;;;17.50;12.02;;;;;;;;;;5040613;28;20482;-68
2021/06/09 00:54:10;;;;;;;14.15;11.70;;;;;;;;;;5065294;28;20109;-69
2021/06/09 00:56:38;;;;;;;16.13;11.10;;;;;;;;;;5062044;28;20040;-69
2021/06/09 00:59:05;;;;;;;16.10;12.00;;;;;;;;;;5062390;28;20213;-69
2021/06/09 01:01:32;;;;;;;13.40;11.70;;;;;;;;;;5041128;28;20429;-69
2021/06/09 01:03:58;;;;;;;16.10;12.32;;;;;;;;;;5066389;28;20053;-69
2021/06/09 01:06:25;;;;;;;15.88;14.00;;;;;;;;;;5064778;28;20051;-69
2021/06/09 01:09:11;;;;;;;19.63;14.82;;;;;;;;;;5044455;28;20137;-69
2021/06/09 01:11:38;;;;;;;20.98;14.77;;;;;;;;;;5063042;28;20076;-69
2021/06/09 01:14:22;;;;;;;15.45;10.57;;;;;;;;;;5062379;28;20036;-69
2021/06/09 01:16:50;;;;;;;13.32;10.52;;;;;;;;;;5064225;28;20068;-69
2021/06/09 01:19:18;;;;;;;13.73;11.55;;;;;;;;;;5065917;28;20459;-69
2021/06/09 01:21:44;;;;;;;13.05;10.65;;;;;;;;;;5064933;28;20064;-69
2021/06/09 01:24:10;;;;;;;12.65;10.30;;;;;;;;;;5065720;28;20501;-68
2021/06/09 01:26:38;;;;;;;16.88;11.70;;;;;;;;;;5066335;28;20044;-69
2021/06/09 01:29:05;;;;;;;16.00;12.63;;;;;;;;;;5069278;28;20037;-69
2021/06/09 01:31:31;;;;;;;15.70;12.15;;;;;;;;;;5068486;28;20109;-69
2021/06/09 01:34:06;;;;;;;15.82;12.07;;;;;;;;;;5066473;28;20056;-69
2021/06/09 01:36:35;;;;;;;14.00;12.15;;;;;;;;;;5064364;28;20044;-69
2021/06/09 01:39:10;;;;;;;14.55;10.85;;;;;;;;;;5065258;28;20485;-69
2021/06/09 01:41:36;;;;;;;;;;;;;;;;;;5069393;28;20436;-69
2021/06/09 01:44:22;;;;;;;15.52;10.85;;;;;;;;;;5054416;28;20027;-69
2021/06/09 01:46:49;;;;;;;13.18;9.73;;;;;;;;;;5064453;28;20049;-68
2021/06/09 01:49:16;;;;;;;18.98;13.73;;;;;;;;;;5066775;28;20442;-68
2021/06/09 01:51:43;;;;;;;16.83;13.63;;;;;;;;;;5059348;28;20052;-69
2021/06/09 01:54:10;;;;;;;16.45;13.20;;;;;;;;;;5062213;28;20052;-69
2021/06/09 01:56:36;;;;;;;15.10;13.38;;;;;;;;;;5074385;28;20072;-68
2021/06/09 01:59:09;;;;;;;20.95;15.55;;;;;;;;;;5064293;28;20124;-69
2021/06/09 02:01:37;;;;;;;17.73;13.95;;;;;;;;;;5066162;28;20460;-69
2021/06/09 02:04:08;;;;;;;17.30;14.27;;;;;;;;;;5042185;28;20044;-69
2021/06/09 02:06:43;;;;;;;20.95;15.05;;;;;;;;;;5066131;28;20060;-69
2021/06/09 02:09:30;;;;;;;14.13;11.85;;;;;;;;;;5050975;28;20040;-68
2021/06/09 02:11:56;;;;;;;14.68;12.23;;;;;;;;;;5063700;28;20059;-68
2021/06/09 02:14:22;;;;;;;16.50;13.05;;;;;;;;;;5067166;28;21983;-69
2021/06/09 02:16:50;;;;;;;16.90;12.50;;;;;;;;;;5046549;28;20044;-68
2021/06/09 02:19:16;;;;;;;16.75;12.80;;;;;;;;;;5068469;28;20121;-69
2021/06/09 02:21:43;;;;;;;16.95;12.25;;;;;;;;;;5065119;28;20135;-68
2021/06/09 02:24:11;;;;;;;18.50;14.52;;;;;;;;;;5065878;28;20045;-69
2021/06/09 02:26:38;;;;;;;19.58;15.85;;;;;;;;;;5066866;28;20143;-68
2021/06/09 02:29:06;;;;;;;33.60;15.07;;;;;;;;;;5064370;28;20772;-69
2021/06/09 02:31:34;;;;;;;19.75;14.70;;;;;;;;;;5064821;28;20056;-70
2021/06/09 02:34:01;;;;;;;16.35;12.50;;;;;;;;;;5064964;28;20139;-68
2021/06/09 02:36:27;;;;;;;15.68;13.00;;;;;;;;;;5066400;28;20060;-69
2021/06/09 02:38:54;;;;;;;19.13;14.57;;;;;;;;;;5067372;28;20586;-69
2021/06/09 02:41:20;;;;;;;19.52;14.65;;;;;;;;;;5067819;28;20178;-68
2021/06/09 02:43:48;;;;;;;20.30;15.23;;;;;;;;;;5067408;28;20064;-68
2021/06/09 02:46:15;;;;;;;17.25;14.02;;;;;;;;;;5065689;28;20045;-68
2021/06/09 02:48:43;;;;;;;15.63;13.15;;;;;;;;;;5063075;28;20134;-69
2021/06/09 02:51:11;;;;;;;17.58;14.00;;;;;;;;;;5061699;28;20086;-69
2021/06/09 02:53:43;;;;;;;16.92;13.75;;;;;;;;;;5065179;28;20064;-69
2021/06/09 02:56:10;;;;;;;17.08;13.60;;;;;;;;;;5066317;28;20123;-68
2021/06/09 02:58:49;;;;;;;17.20;13.18;;;;;;;;;;5064774;28;20036;-69
2021/06/09 03:01:17;;;;;;;17.48;11.68;;;;;;;;;;5045157;28;20139;-69
2021/06/09 03:03:48;;;;;;;15.13;10.73;;;;;;;;;;5067706;28;20098;-69
2021/06/09 03:06:21;;;;;;;15.27;10.18;;;;;;;;;;5065125;28;20044;-68
2021/06/09 03:09:07;;;;;;;14.90;11.85;;;;;;;;;;5048729;28;20060;-69
2021/06/09 03:11:41;;;;;;;15.43;12.02;;;;;;;;;;5058644;28;20052;-68
2021/06/09 03:15:09;;;;;;;16.95;12.60;;;;;;;;;;5065506;28;20427;-68
2021/06/09 03:17:11;;;;;;;19.20;14.13;;;;;;;;;;5067682;28;20128;-68
2021/06/09 03:19:40;;;;;;;21.30;15.00;;;;;;;;;;5067191;28;20060;-68
2021/06/09 03:22:32;;;;;;;20.83;13.20;;;;;;;;;;5062407;28;20120;-68
2021/06/09 03:24:59;;;;;;;18.25;13.68;;;;;;;;;;5062209;28;20495;-68
2021/06/09 03:27:31;;;;;;;14.85;10.48;;;;;;;;;;5045520;28;20041;-68
2021/06/09 03:30:04;;;;;;;13.82;11.00;;;;;;;;;;5065163;28;20048;-68
2021/06/09 03:32:31;;;;;;;;;;;;;;;;;;5065159;28;20045;-68
2021/06/09 03:35:01;;;;;;;16.98;10.73;;;;;;;;;;5064240;28;20357;-69
2021/06/09 03:37:30;;;;;;;16.67;12.98;;;;;;;;;;5066649;28;20062;-68
2021/06/09 03:39:58;;;;;;;19.42;13.32;;;;;;;;;;5065412;28;20063;-69
2021/06/09 03:42:29;;;;;;;23.08;16.35;;;;;;;;;;5065621;28;20092;-68
2021/06/09 03:44:56;;;;;;;19.25;14.57;;;;;;;;;;5066798;28;20028;-69
2021/06/09 03:47:23;;;;;;;18.08;12.93;;;;;;;;;;5066212;28;20045;-69
2021/06/09 03:49:49;;;;;;;21.83;14.68;;;;;;;;;;5066357;28;20032;-69
2021/06/09 03:52:17;;;;;;;14.77;11.73;;;;;;;;;;5057103;28;20041;-68
2021/06/09 03:54:44;;;;;;;14.13;11.25;;;;;;;;;;5059631;28;20404;-68
2021/06/09 03:57:32;;;;;;;16.35;12.00;;;;;;;;;;5050155;28;20637;-68
2021/06/09 04:00:00;;;;;;;17.38;13.15;;;;;;;;;;5061822;28;20045;-68
2021/06/09 04:02:28;;;;;;;21.38;13.18;;;;;;;;;;5063938;28;20047;-68
2021/06/09 04:04:56;;;;;;;17.48;12.90;;;;;;;;;;5065759;28;20056;-68
2021/06/09 04:07:23;;;;;;;20.65;15.05;;;;;;;;;;5065286;28;20051;-69
2021/06/09 04:09:50;;;;;;;21.05;14.98;;;;;;;;;;5064674;28;20059;-68
2021/06/09 04:12:17;;;;;;;20.73;15.32;;;;;;;;;;5041038;28;20043;-68
2021/06/09 04:14:47;;;;;;;20.75;15.50;;;;;;;;;;5062344;28;20048;-69
2021/06/09 04:17:17;;;;;;;22.92;16.15;;;;;;;;;;5062747;28;20484;-68
2021/06/09 04:19:46;;;;;;;24.88;17.83;;;;;;;;;;5066472;28;20427;-69
2021/06/09 04:22:12;;;;;;;26.73;17.73;;;;;;;;;;5061003;28;20052;-68
2021/06/09 04:24:40;;;;;;;23.27;17.30;;;;;;;;;;5069342;28;20040;-68
2021/06/09 04:27:09;;;;;;;28.30;19.38;;;;;;;;;;5049400;28;20077;-68
2021/06/09 04:29:37;;;;;;;25.80;18.48;;;;;;;;;;5068283;28;20102;-69
2021/06/09 04:32:05;;;;;;;27.48;19.48;;;;;;;;;;5069597;28;20397;-68
2021/06/09 04:34:42;;;;;;;30.60;20.98;;;;;;;;;;5067577;28;20055;-68
2021/06/09 04:37:09;;;;;;;32.42;21.35;;;;;;;;;;5057764;28;20468;-68
2021/06/09 04:39:38;;;;;;;29.30;20.20;;;;;;;;;;5062213;28;20037;-68
2021/06/09 04:42:05;;;;;;;24.88;18.13;;;;;;;;;;5066952;28;20079;-68
2021/06/09 04:44:33;;;;;;;28.75;20.27;;;;;;;;;;5056709;28;20408;-69
2021/06/09 04:47:00;;;;;;;27.98;20.42;;;;;;;;;;5068712;28;20119;-69
2021/06/09 04:49:31;;;;;;;29.80;20.98;;;;;;;;;;5068542;28;20048;-69
2021/06/09 04:52:00;;;;;;;33.15;22.20;;;;;;;;;;5072031;28;20147;-69
2021/06/09 04:54:27;;;;;;;33.92;22.35;;;;;;;;;;5072377;28;20083;-69
2021/06/09 04:56:53;;;;;;;31.52;22.60;;;;;;;;;;5070521;28;20044;-69
2021/06/09 04:59:20;;;;;;;32.10;22.23;;;;;;;;;;5072410;28;20044;-69
2021/06/09 05:01:46;;;;;;;34.05;23.30;;;;;;;;;;5072333;28;20392;-69
2021/06/09 05:04:12;;;;;;;35.08;24.42;;;;;;;;;;5071754;28;20503;-69
2021/06/09 05:06:40;;;;;;;34.15;25.67;;;;;;;;;;5068067;28;20087;-69
2021/06/09 05:09:07;;;;;;;34.33;24.88;;;;;;;;;;5072956;28;20033;-70
2021/06/09 05:11:37;;;;;;;40.15;27.63;;;;;;;;;;5071581;28;20487;-69
2021/06/09 05:14:05;;;;;;;44.47;29.33;;;;;;;;;;5070839;28;20151;-68
2021/06/09 05:16:32;;;;;;;44.78;30.00;;;;;;;;;;5072107;28;20041;-69
2021/06/09 05:19:00;;;;;;;40.72;30.52;;;;;;;;;;5054027;28;20106;-69
2021/06/09 05:21:34;;;;;;;36.30;28.33;;;;;;;;;;5071774;28;20044;-69
2021/06/09 05:24:00;;;;;;;;;;;;;;;;;;5073666;28;20148;-68
2021/06/09 05:26:27;;;;;;;34.58;27.08;;;;;;;;;;5072260;28;20015;-68
2021/06/09 05:28:58;;;;;;;35.67;27.45;;;;;;;;;;5073237;28;20140;-68
2021/06/09 05:31:25;;;;;;;33.80;26.80;;;;;;;;;;5072862;28;20487;-68
2021/06/09 05:33:54;;;;;;;35.58;26.77;;;;;;;;;;5071989;28;20435;-68
2021/06/09 05:36:21;;;;;;;39.97;28.73;;;;;;;;;;5072735;28;20048;-68
2021/06/09 05:38:47;;;;;;;36.00;26.90;;;;;;;;;;5072184;28;20369;-68
2021/06/09 05:41:14;;;;;;;37.17;27.23;;;;;;;;;;5072371;28;20074;-69
2021/06/09 05:43:41;;;;;;;37.08;26.88;;;;;;;;;;5072898;28;20056;-69
2021/06/09 05:46:08;;;;;;;37.70;28.05;;;;;;;;;;5071881;28;20483;-68
2021/06/09 05:48:41;;;;;;;32.88;24.33;;;;;;;;;;5072600;28;20048;-69
2021/06/09 05:51:09;;;;;;;31.85;25.38;;;;;;;;;;5072584;28;20048;-69
2021/06/09 05:53:35;;;;;;;35.05;26.40;;;;;;;;;;5071167;28;20049;-68
2021/06/09 05:56:02;;;;;;;32.65;25.17;;;;;;;;;;5072176;28;20044;-69
2021/06/09 05:58:29;;;;;;;33.97;23.80;;;;;;;;;;5071538;28;20099;-69
2021/06/09 06:00:57;;;;;;;30.75;24.83;;;;;;;;;;5071363;28;20040;-69
2021/06/09 06:03:24;;;;;;;32.70;25.23;;;;;;;;;;5071412;28;20139;-68
2021/06/09 06:05:55;;;;;;;31.10;22.50;;;;;;;;;;5072262;28;20044;-68
2021/06/09 06:08:22;;;;;;;30.35;23.52;;;;;;;;;;5071532;28;20774;-69
2021/06/09 06:10:49;;;;;;;35.83;24.17;;;;;;;;;;5072269;28;20127;-69
2021/06/09 06:13:16;;;;;;;38.50;24.88;;;;;;;;;;5072056;28;20044;-68
2021/06/09 06:15:42;;;;;;;45.92;26.63;;;;;;;;;;5071138;28;20037;-68
2021/06/09 06:18:33;;;;;;;56.92;27.88;;;;;;;;;;5057224;28;20135;-69
2021/06/09 06:21:00;;;;;;;37.90;21.90;;;;;;;;;;5071128;28;20047;-68
2021/06/09 06:23:26;;;;;;;43.30;23.77;;;;;;;;;;5072242;28;20132;-68
2021/06/09 06:25:54;;;;;;;42.30;20.30;;;;;;;;;;5071859;28;20056;-68
2021/06/09 06:28:20;;;;;;;38.70;19.20;;;;;;;;;;5071475;28;20040;-68
2021/06/09 06:30:58;;;;;;;30.05;16.15;;;;;;;;;;5071574;28;20052;-68
2021/06/09 06:33:25;;;;;;;22.40;13.35;;;;;;;;;;5071898;28;20116;-68
2021/06/09 06:35:52;;;;;;;20.23;10.57;;;;;;;;;;5070897;28;20541;-68
2021/06/09 06:38:20;;;;;;;14.30;10.05;;;;;;;;;;5071725;28;20102;-68
2021/06/09 06:40:48;;;;;;;15.27;10.18;;;;;;;;;;5071782;28;20056;-68
2021/06/09 06:43:16;;;;;;;14.23;8.82;;;;;;;;;;5070856;28;20041;-68
2021/06/09 06:45:43;;;;;;;13.90;9.57;;;;;;;;;;5071378;28;20392;-68
2021/06/09 06:48:10;;;;;;;12.25;9.75;;;;;;;;;;5071330;28;20090;-68
2021/06/09 06:50:38;;;;;;;12.43;9.00;;;;;;;;;;5070610;28;20124;-68
2021/06/09 06:53:07;;;;;;;11.88;7.82;;;;;;;;;;5071117;28;20084;-68
2021/06/09 06:55:37;;;;;;;11.80;9.00;;;;;;;;;;5071354;28;20056;-68
2021/06/09 06:58:05;;;;;;;14.63;9.32;;;;;;;;;;5052637;28;20467;-68
2021/06/09 07:00:32;;;;;;;13.98;9.30;;;;;;;;;;5071368;28;20134;-68
2021/06/09 07:03:02;;;;;;;13.95;10.25;;;;;;;;;;5071437;28;20087;-68
2021/06/09 07:05:37;;;;;;;12.80;10.77;;;;;;;;;;5071295;28;20368;-68
2021/06/09 07:08:04;;;;;;;13.27;10.20;;;;;;;;;;5071174;28;20045;-68
2021/06/09 07:10:31;;;;;;;14.65;11.48;;;;;;;;;;5070414;28;20048;-68
2021/06/09 07:13:00;;;;;;;17.30;12.35;;;;;;;;;;5070991;28;20431;-68
2021/06/09 07:15:29;;;;;;;15.63;13.80;;;;;;;;;;5070020;28;20391;-68
2021/06/09 07:17:57;;;;;;;16.60;13.38;;;;;;;;;;5070370;28;20060;-68
2021/06/09 07:20:25;;;;;;;18.42;13.07;;;;;;;;;;5071185;28;20143;-68
2021/06/09 07:22:53;;;;;;;17.48;14.32;;;;;;;;;;5070780;28;20058;-68
2021/06/09 07:25:20;;;;;;;17.85;15.15;;;;;;;;;;5069924;28;20372;-68
2021/06/09 07:27:48;;;;;;;19.77;16.23;;;;;;;;;;5070552;28;20037;-68
2021/06/09 07:30:17;;;;;;;19.65;16.38;;;;;;;;;;5071006;28;20063;-68
2021/06/09 07:32:44;;;;;;;24.33;17.17;;;;;;;;;;5069972;28;20098;-68
2021/06/09 07:35:12;;;;;;;21.55;16.25;;;;;;;;;;5070660;28;20121;-68
2021/06/09 07:37:42;;;;;;;20.67;18.25;;;;;;;;;;5070329;28;20141;-68
2021/06/09 07:40:11;;;;;;;21.02;17.55;;;;;;;;;;5070106;28;20463;-68
2021/06/09 07:42:40;;;;;;;20.73;17.85;;;;;;;;;;5052564;28;20044;-68
2021/06/09 07:45:10;;;;;;;20.50;17.95;;;;;;;;;;5056628;28;20055;-68
2021/06/09 07:47:55;;;;;;;21.77;18.13;;;;;;;;;;5070191;28;20121;-68
2021/06/09 07:50:29;;;;;;;24.67;18.17;;;;;;;;;;5070235;28;20060;-68
2021/06/09 07:52:56;;;;;;;22.88;19.63;;;;;;;;;;5069219;28;20067;-69
2021/06/09 07:55:23;;;;;;;24.45;18.98;;;;;;;;;;5070493;28;20067;-68
2021/06/09 07:57:51;;;;;;;22.52;18.67;;;;;;;;;;5070108;28;20068;-68
2021/06/09 08:00:18;;;;;;;23.15;20.45;;;;;;;;;;5069426;28;20067;-68
2021/06/09 08:02:54;;;;;;;25.23;19.48;;;;;;;;;;5070058;28;20052;-69
2021/06/09 08:05:21;;;;;;;25.20;20.95;;;;;;;;;;5069947;28;20100;-69
2021/06/09 08:07:47;;;;;;;24.38;20.25;;;;;;;;;;5069664;28;20373;-69
2021/06/09 08:10:16;;;;;;;24.70;21.25;;;;;;;;;;5069850;28;20554;-69
2021/06/09 08:12:43;;;;;;;22.70;19.70;;;;;;;;;;5070029;28;20040;-69
2021/06/09 08:15:13;;;;;;;22.35;19.88;;;;;;;;;;5051410;28;20045;-69
2021/06/09 08:17:44;;;;;;;27.13;21.00;;;;;;;;;;5069922;28;20404;-69
2021/06/09 08:20:11;;;;;;;22.77;19.98;;;;;;;;;;5069999;28;20044;-69
2021/06/09 08:22:39;;;;;;;25.00;20.35;;;;;;;;;;5069417;28;20247;-69
2021/06/09 08:25:06;;;;;;;24.65;19.25;;;;;;;;;;5052175;28;20136;-69
2021/06/09 08:27:33;;;;;;;26.15;21.00;;;;;;;;;;5072798;28;20048;-69
2021/06/09 08:29:59;;;;;;;21.58;19.00;;;;;;;;;;5074051;28;20098;-69
2021/06/09 08:32:29;;;;;;;25.73;20.17;;;;;;;;;;5073973;28;20052;-68
2021/06/09 08:34:56;;;;;;;25.75;20.80;;;;;;;;;;5073208;28;20381;-69
2021/06/09 08:37:23;;;;;;;23.20;20.05;;;;;;;;;;5074303;28;20044;-86
2021/06/09 08:39:50;;;;;;;22.63;19.52;;;;;;;;;;5056151;28;20167;-69
2021/06/09 08:42:18;;;;;;;20.23;17.67;;;;;;;;;;5072986;28;20151;-69
2021/06/09 08:44:50;;;;;;;21.85;18.83;;;;;;;;;;5073694;28;20127;-69
2021/06/09 08:47:17;;;;;;;26.23;20.17;;;;;;;;;;5073769;28;20147;-69
2021/06/09 08:49:44;;;;;;;21.40;18.67;;;;;;;;;;5072744;28;20052;-69
2021/06/09 08:52:12;;;;;;;18.77;16.20;;;;;;;;;;5073707;28;20041;-69
2021/06/09 08:54:47;;;;;;;19.83;17.70;;;;;;;;;;5073079;28;20360;-69
2021/06/09 08:57:14;;;;;;;21.02;18.00;;;;;;;;;;5072851;28;20147;-69
2021/06/09 08:59:43;;;;;;;21.23;17.33;;;;;;;;;;5073351;28;20044;-69
2021/06/09 09:02:10;;;;;;;19.90;17.40;;;;;;;;;;5073476;28;20090;-69
2021/06/09 09:04:38;;;;;;;22.40;20.00;;;;;;;;;;5054821;28;20060;-68
2021/06/09 09:07:08;;;;;;;21.52;18.35;;;;;;;;;;5073056;28;20040;-69
2021/06/09 09:09:35;;;;;;;20.67;17.23;;;;;;;;;;5073220;28;20467;-69
2021/06/09 09:12:02;;;;;;;20.67;16.35;;;;;;;;;;5072341;28;20468;-69
2021/06/09 09:14:29;;;;;;;21.42;17.55;;;;;;;;;;5073055;28;20067;-69
2021/06/09 09:17:03;;;;;;;21.50;18.77;;;;;;;;;;5072460;28;20048;-69
2021/06/09 09:19:31;;;;;;;19.00;16.63;;;;;;;;;;5054788;28;20132;-69
2021/06/09 09:21:57;;;;;;;20.95;16.67;;;;;;;;;;5072988;28;20044;-69
2021/06/09 09:24:37;;;;;;;22.73;17.48;;;;;;;;;;5071996;28;20098;-69
2021/06/09 09:27:05;;;;;;;18.73;16.15;;;;;;;;;;5073159;28;20049;-69
2021/06/09 09:29:31;;;;;;;17.42;14.70;;;;;;;;;;5072598;28;20447;-69
2021/06/09 09:32:03;;;;;;;22.30;16.55;;;;;;;;;;5072016;28;20048;-69
2021/06/09 09:34:30;;;;;;;21.00;17.02;;;;;;;;;;5072464;28;20048;-69
2021/06/09 09:37:05;;;;;;;21.70;17.13;;;;;;;;;;5072293;28;20112;-68
2021/06/09 09:39:31;;;;;;;23.15;17.25;;;;;;;;;;5071660;28;20063;-69
2021/06/09 09:42:15;;;;;;;21.02;18.40;;;;;;;;;;5072497;28;20124;-69
2021/06/09 09:44:41;;;;;;;18.67;16.67;;;;;;;;;;5072514;28;20040;-69
2021/06/09 09:47:14;;;;;;;22.50;16.92;;;;;;;;;;5071693;28;20338;-69
2021/06/09 09:49:41;;;;;;;;;;;;;;;;;;5072965;28;20425;-69
2021/06/09 09:52:07;;;;;;;20.38;16.05;;;;;;;;;;5071639;28;19920;-69
2021/06/09 09:54:35;;;;;;;19.45;16.50;;;;;;;;;;5072074;28;20549;-69
2021/06/09 09:57:04;;;;;;;17.20;15.35;;;;;;;;;;5058624;28;20044;-69
2021/06/09 09:59:31;;;;;;;18.77;15.00;;;;;;;;;;5071531;28;20045;-69
2021/06/09 10:02:01;;;;;;;19.17;16.92;;;;;;;;;;5071923;28;20059;-69
2021/06/09 10:04:33;;;;;;;17.38;15.63;;;;;;;;;;5072326;28;20079;-69
2021/06/09 10:07:00;;;;;;;18.30;14.35;;;;;;;;;;5071568;28;20036;-69
2021/06/09 10:09:27;;;;;;;17.25;15.32;;;;;;;;;;5072103;28;20447;-69
2021/06/09 10:11:56;;;;;;;17.80;15.40;;;;;;;;;;5071854;28;20142;-69
2021/06/09 10:14:25;;;;;;;17.38;15.40;;;;;;;;;;5071235;28;20072;-69
2021/06/09 10:17:00;;;;;;;17.17;15.25;;;;;;;;;;5072131;28;20537;-69
2021/06/09 10:19:28;;;;;;;19.38;15.15;;;;;;;;;;5071905;28;20078;-69
2021/06/09 10:21:56;;;;;;;17.10;14.57;;;;;;;;;;5071061;28;20438;-69
2021/06/09 10:24:24;;;;;;;17.13;14.13;;;;;;;;;;5071582;28;20045;-69
2021/06/09 10:27:02;;;;;;;16.52;14.55;;;;;;;;;;5071958;28;20048;-69
2021/06/09 10:29:31;;;;;;;16.65;15.02;;;;;;;;;;5071640;28;20438;-69
2021/06/09 10:32:00;;;;;;;16.45;14.75;;;;;;;;;;5071759;28;20052;-69
2021/06/09 10:34:30;;;;;;;18.55;13.98;;;;;;;;;;5070834;28;20057;-69
2021/06/09 10:36:57;;;;;;;19.50;16.88;;;;;;;;;;5071685;28;20048;-69
2021/06/09 10:39:25;;;;;;;18.15;14.80;;;;;;;;;;5071584;28;20096;-69
2021/06/09 10:41:52;;;;;;;16.98;15.27;;;;;;;;;;5070683;28;20590;-69
2021/06/09 10:44:23;;;;;;;19.65;14.25;;;;;;;;;;5071474;28;20048;-69
2021/06/09 10:46:51;;;;;;;15.57;13.95;;;;;;;;;;5071585;28;20113;-69
2021/06/09 10:49:19;;;;;;;20.27;15.55;;;;;;;;;;5070351;28;20045;-69
2021/06/09 10:51:46;;;;;;;18.05;16.30;;;;;;;;;;5071189;28;20132;-69
2021/06/09 10:54:15;;;;;;;19.05;15.73;;;;;;;;;;5071071;28;20052;-69
2021/06/09 10:56:44;;;;;;;23.45;16.83;;;;;;;;;;5068983;28;20044;-69
2021/06/09 10:59:12;;;;;;;17.05;15.35;;;;;;;;;;5070105;28;20079;-69
2021/06/09 11:01:39;;;;;;;17.70;15.77;;;;;;;;;;5069638;28;20040;-69
2021/06/09 11:04:07;;;;;;;18.65;16.65;;;;;;;;;;5070210;28;20053;-69
2021/06/09 11:06:38;;;;;;;18.63;16.50;;;;;;;;;;5071155;28;20054;-69
2021/06/09 11:09:15;;;;;;;17.52;15.63;;;;;;;;;;5071023;28;20541;-69
2021/06/09 11:11:45;;;;;;;17.95;16.13;;;;;;;;;;5070737;28;20053;-69
2021/06/09 11:14:18;;;;;;;18.98;16.23;;;;;;;;;;5070692;28;20092;-69
2021/06/09 11:16:53;;;;;;;17.70;15.32;;;;;;;;;;5069840;28;20140;-69
2021/06/09 11:19:34;;;;;;;17.83;14.63;;;;;;;;;;5070817;28;20048;-68
2021/06/09 11:22:14;;;;;;;16.55;14.95;;;;;;;;;;5070698;28;20048;-68
2021/06/09 11:24:40;;;;;;;17.25;15.50;;;;;;;;;;5069810;28;20059;-68
2021/06/09 11:27:25;;;;;;;17.48;14.65;;;;;;;;;;5069992;28;20488;-68
2021/06/09 11:29:52;;;;;;;18.90;15.70;;;;;;;;;;5057054;28;20044;-68
2021/06/09 11:32:19;;;;;;;17.52;14.25;;;;;;;;;;5069800;28;20045;-68
2021/06/09 11:34:58;;;;;;;14.23;12.73;;;;;;;;;;5070297;28;20064;-68
2021/06/09 11:37:29;;;;;;;17.05;12.43;;;;;;;;;;5069493;28;20098;-68
2021/06/09 11:39:59;;;;;;;12.95;11.65;;;;;;;;;;5070595;28;20155;-68
2021/06/09 11:42:28;;;;;;;14.60;11.80;;;;;;;;;;5068220;28;20051;-68
2021/06/09 11:44:58;;;;;;;16.48;12.23;;;;;;;;;;5037567;28;20041;-68
2021/06/09 11:47:25;;;;;;;13.25;11.82;;;;;;;;;;5068098;28;20051;-68
2021/06/09 11:49:53;;;;;;;13.88;12.38;;;;;;;;;;5067791;28;20042;-68
2021/06/09 11:52:21;;;;;;;19.27;17.25;;;;;;;;;;5069943;28;20055;-68
2021/06/09 11:54:47;;;;;;;21.70;19.42;;;;;;;;;;5069779;28;20170;-68
2021/06/09 11:57:22;;;;;;;21.88;19.60;;;;;;;;;;5070372;28;20048;-72
2021/06/09 11:59:50;;;;;;;22.88;20.50;;;;;;;;;;5068993;28;20060;-68
2021/06/09 12:02:18;;;;;;;24.50;21.52;;;;;;;;;;5069728;28;20072;-68
2021/06/09 12:04:45;;;;;;;23.13;20.80;;;;;;;;;;5070465;28;20102;-68
2021/06/09 12:07:12;;;;;;;23.23;20.83;;;;;;;;;;5069397;28;20090;-68
2021/06/09 12:09:40;;;;;;;26.52;22.10;;;;;;;;;;5070324;28;20083;-68
2021/06/09 12:12:11;;;;;;;24.50;21.83;;;;;;;;;;5069904;28;20143;-68
2021/06/09 12:14:39;;;;;;;24.52;21.60;;;;;;;;;;5069353;28;20510;-68
2021/06/09 12:17:11;;;;;;;25.00;22.40;;;;;;;;;;5069921;28;20049;-68
2021/06/09 12:19:39;;;;;;;24.67;22.13;;;;;;;;;;5055598;28;20440;-68
2021/06/09 12:22:09;;;;;;;25.27;22.63;;;;;;;;;;5070106;28;20044;-68
2021/06/09 12:24:36;;;;;;;28.67;22.73;;;;;;;;;;5069902;28;20075;-68
2021/06/09 12:27:04;;;;;;;25.23;22.73;;;;;;;;;;5069181;28;20045;-68
2021/06/09 12:29:33;;;;;;;24.35;21.85;;;;;;;;;;5069903;28;20048;-68
2021/06/09 12:32:00;;;;;;;23.42;21.02;;;;;;;;;;5070004;28;20480;-68
2021/06/09 12:34:29;;;;;;;22.42;20.10;;;;;;;;;;5068873;28;20442;-68
2021/06/09 12:36:59;;;;;;;20.77;18.63;;;;;;;;;;5070027;28;20044;-68
2021/06/09 12:39:26;;;;;;;23.02;20.02;;;;;;;;;;5069714;28;20476;-68
2021/06/09 12:41:53;;;;;;;25.83;16.90;;;;;;;;;;5069094;28;20044;-68
2021/06/09 12:44:20;;;;;;;18.83;16.83;;;;;;;;;;5070049;28;20090;-68
2021/06/09 12:46:50;;;;;;;12.95;8.95;;;;;;;;;;5069898;28;20044;-68
2021/06/09 12:49:27;;;;;;;9.25;8.25;;;;;;;;;;5069151;28;20510;-68
2021/06/09 12:52:02;;;;;;;11.57;8.05;;;;;;;;;;5069643;28;20048;-68
2021/06/09 12:54:28;;;;;;;8.95;7.40;;;;;;;;;;5069403;28;20091;-68
2021/06/09 12:56:55;;;;;;;11.18;7.63;;;;;;;;;;5068936;28;20116;-68
2021/06/09 12:59:33;;;;;;;8.95;7.70;;;;;;;;;;5069930;28;20052;-68
2021/06/09 13:01:59;;;;;;;8.82;6.95;;;;;;;;;;5068703;28;20037;-68
2021/06/09 13:04:33;;;;;;;8.15;6.72;;;;;;;;;;5069673;28;20076;-68
2021/06/09 13:06:59;;;;;;;7.32;5.80;;;;;;;;;;5069413;28;20442;-68
2021/06/09 13:09:28;;;;;;;7.50;5.45;;;;;;;;;;5068614;28;20437;-68
2021/06/09 13:11:54;;;;;;;7.57;5.72;;;;;;;;;;5070376;28;20044;-69
2021/06/09 13:14:29;;;;;;;9.50;8.50;;;;;;;;;;5073015;28;20048;-68
2021/06/09 13:17:00;;;;;;;9.15;7.47;;;;;;;;;;5072374;28;20396;-68
2021/06/09 13:19:28;;;;;;;8.75;7.85;;;;;;;;;;5072963;28;20036;-68
2021/06/09 13:21:55;;;;;;;10.77;8.35;;;;;;;;;;5073222;28;20052;-68
2021/06/09 13:24:25;;;;;;;10.77;9.68;;;;;;;;;;5072083;28;20087;-68
2021/06/09 13:26:54;;;;;;;12.85;10.35;;;;;;;;;;5072883;28;20503;-69
2021/06/09 13:29:23;;;;;;;12.07;10.23;;;;;;;;;;5072721;28;20055;-69
2021/06/09 13:31:51;;;;;;;10.57;9.13;;;;;;;;;;5071892;28;20516;-69
2021/06/09 13:34:21;;;;;;;10.43;8.23;;;;;;;;;;5072493;28;20401;-69
2021/06/09 13:36:53;;;;;;;10.32;8.48;;;;;;;;;;5072831;28;20040;-69
2021/06/09 13:39:20;;;;;;;8.75;7.30;;;;;;;;;;5072231;28;20415;-69
2021/06/09 13:41:46;;;;;;;9.70;6.85;;;;;;;;;;5072542;28;20038;-68
2021/06/09 13:44:13;;;;;;;8.23;7.28;;;;;;;;;;5071813;28;20055;-68
2021/06/09 13:46:42;;;;;;;11.65;9.02;;;;;;;;;;5072354;28;20516;-68
2021/06/09 13:49:08;;;;;;;10.23;8.95;;;;;;;;;;5072735;28;20048;-68
2021/06/09 13:51:38;;;;;;;10.38;9.27;;;;;;;;;;5071289;28;20488;-68
2021/06/09 13:54:06;;;;;;;10.35;8.93;;;;;;;;;;5072001;28;20411;-69
2021/06/09 13:56:36;;;;;;;11.32;8.48;;;;;;;;;;5072191;28;20037;-69
2021/06/09 13:59:14;;;;;;;10.30;9.05;;;;;;;;;;5071524;28;20476;-69
2021/06/09 14:01:41;;;;;;;9.88;7.88;;;;;;;;;;5072268;28;20044;-69
2021/06/09 14:04:07;;;;;;;10.15;8.25;;;;;;;;;;5072399;28;20140;-68
2021/06/09 14:06:34;;;;;;;13.07;8.93;;;;;;;;;;5071468;28;20048;-68
2021/06/09 14:09:06;;;;;;;10.50;7.55;;;;;;;;;;5072141;28;20326;-68
2021/06/09 14:11:33;;;;;;;9.48;6.30;;;;;;;;;;5072007;28;20068;-68
2021/06/09 14:13:59;;;;;;;9.60;6.75;;;;;;;;;;5071151;28;20048;-69
2021/06/09 14:16:26;;;;;;;9.38;6.53;;;;;;;;;;5072119;28;20385;-68
2021/06/09 14:18:52;;;;;;;9.75;7.15;;;;;;;;;;5072146;28;20053;-69
2021/06/09 14:21:30;;;;;;;8.07;5.97;;;;;;;;;;5070973;28;20040;-69
2021/06/09 14:23:57;;;;;;;7.60;4.72;;;;;;;;;;5071103;28;20522;-68
2021/06/09 14:26:24;;;;;;;6.53;4.72;;;;;;;;;;5071125;28;20044;-68
2021/06/09 14:28:50;;;;;;;7.95;4.07;;;;;;;;;;5072014;28;20101;-69
2021/06/09 14:31:22;;;;;;;7.60;4.25;;;;;;;;;;5071690;28;20060;-69